GAMB

Mopti Airport

Mali
METAR GAMB 230300Z 00000KT 2000 DU NSC 27/24 Q1011
Observed Flight Rules
Oct-23 @ 03:00 UTC (3 hours ago) Instrument Flight Rules
Visibility Clouds Conditions
1,996 meters
  • Clear skies
  • Dust
Temperatures Readings
Current 27°C / 81°F
Dewpoint 24°C / 75°F
Humidity 84%
Altimeter 29.85" Hg
Pressure 1011 hPa
Elevation 272
METAR GAMB 230300Z 00000KT 2000 DU NSC 27/24 Q1011
Observed Flight Rules
Oct-23 @ 03:00 UTC
(3 hours ago)
IFR
Clouds
  • Clear skies
Conditions
  • Dust
Temperature Dewpoint
27°C / 81°F 24°C / 75°F
Humidity Altimeter Pressure
84% 29.85" Hg 1011 hPa